createdAt,value
2022-11-09T00:01:38.135Z,96433.25
2022-11-09T00:04:06.276Z,96440.34
2022-11-09T00:06:34.281Z,96437.22
2022-11-09T00:09:07.472Z,96443.94
2022-11-09T00:11:34.635Z,96439.59
2022-11-09T00:14:01.326Z,96445.03
2022-11-09T00:16:28.054Z,96447.53
2022-11-09T00:18:56.046Z,96447.41
2022-11-09T00:21:24.629Z,96438.66
2022-11-09T00:23:51.884Z,96451.00
2022-11-09T00:26:19.739Z,96445.63
2022-11-09T00:28:46.387Z,96435.47
2022-11-09T00:31:15.939Z,96448.69
2022-11-09T00:33:51.351Z,96434.50
2022-11-09T00:36:19.243Z,96436.78
2022-11-09T00:38:49.951Z,96439.16
2022-11-09T00:41:17.055Z,96426.78
2022-11-09T00:43:43.758Z,96427.66
2022-11-09T00:46:10.473Z,96427.88
2022-11-09T00:48:37.660Z,96423.28
2022-11-09T00:51:05.127Z,96433.88
2022-11-09T00:53:32.062Z,96427.88
2022-11-09T00:56:04.803Z,96426.66
2022-11-09T00:58:35.703Z,96427.41
2022-11-09T01:01:11.569Z,96426.44
2022-11-09T01:03:38.560Z,96426.78
2022-11-09T01:06:06.008Z,96419.97
2022-11-09T01:08:34.412Z,96413.22
2022-11-09T01:11:08.954Z,96427.50
2022-11-09T01:13:37.150Z,96432.94
2022-11-09T01:16:10.414Z,96429.69
2022-11-09T01:18:38.399Z,96435.34
2022-11-09T01:21:08.132Z,96432.94
2022-11-09T01:23:35.400Z,96438.22
2022-11-09T01:26:04.674Z,96441.22
2022-11-09T01:28:31.616Z,96427.19
2022-11-09T01:31:03.309Z,96422.13
2022-11-09T01:33:32.406Z,96418.94
2022-11-09T01:36:08.242Z,96404.75
2022-11-09T01:38:36.901Z,96414.22
2022-11-09T01:41:04.704Z,96395.03
2022-11-09T01:43:31.543Z,96393.34
2022-11-09T01:46:06.613Z,96402.25
2022-11-09T01:48:50.219Z,96385.56
2022-11-09T01:51:33.941Z,96396.97
2022-11-09T01:54:12.995Z,96410.69
2022-11-09T01:56:40.581Z,96401.34
2022-11-09T01:59:15.337Z,96403.03
2022-11-09T02:01:43.502Z,96403.72
2022-11-09T02:04:16.147Z,96397.03
2022-11-09T02:06:45.709Z,96395.38
2022-11-09T02:09:18.265Z,96395.81
2022-11-09T02:11:44.889Z,96379.25
2022-11-09T02:14:14.049Z,96394.97
2022-11-09T02:16:41.871Z,96391.88
2022-11-09T02:19:08.600Z,96392.47
2022-11-09T02:21:35.237Z,96390.78
2022-11-09T02:24:02.006Z,96391.63
2022-11-09T02:26:38.999Z,96380.22
2022-11-09T02:29:08.912Z,96379.53
2022-11-09T02:31:39.687Z,96373.97
2022-11-09T02:34:13.403Z,96373.13
2022-11-09T02:36:43.495Z,96364.75
2022-11-09T02:39:19.196Z,96363.91
2022-11-09T02:42:10.411Z,96378.56
2022-11-09T02:44:48.013Z,96375.47
2022-11-09T02:47:15.469Z,96383.50
2022-11-09T02:49:42.875Z,96383.31
2022-11-09T02:52:09.474Z,96388.34
2022-11-09T02:54:36.146Z,96385.97
2022-11-09T02:57:04.117Z,96381.66
2022-11-09T02:59:31.867Z,96380.94
2022-11-09T03:01:58.867Z,96387.16
2022-11-09T03:04:27.346Z,96376.50
2022-11-09T03:06:54.603Z,96382.84
2022-11-09T03:09:21.907Z,96386.59
2022-11-09T03:11:50.567Z,96382.56
2022-11-09T03:14:17.782Z,96370.28
2022-11-09T03:16:51.009Z,96381.44
2022-11-09T03:19:18.503Z,96394.06
2022-11-09T03:21:47.115Z,96396.38
2022-11-09T03:24:13.816Z,96408.69
2022-11-09T03:26:41.548Z,96408.13
2022-11-09T03:29:08.646Z,96409.47
2022-11-09T03:31:35.864Z,96416.41
2022-11-09T03:34:05.711Z,96406.56
2022-11-09T03:36:35.214Z,96417.94
2022-11-09T03:39:01.836Z,96405.22
2022-11-09T03:41:28.447Z,96422.03
2022-11-09T03:43:55.160Z,96405.66
2022-11-09T03:46:21.720Z,96414.69
2022-11-09T03:48:48.302Z,96417.06
2022-11-09T03:51:14.870Z,96425.00
2022-11-09T03:53:41.660Z,96416.22
2022-11-09T03:56:08.583Z,96420.41
2022-11-09T03:58:35.266Z,96425.69
2022-11-09T04:01:01.885Z,96421.81
2022-11-09T04:03:28.897Z,96425.69
2022-11-09T04:05:57.839Z,96429.19
2022-11-09T04:08:24.583Z,96427.88
2022-11-09T04:10:51.169Z,96420.41
2022-11-09T04:13:18.214Z,96419.50
2022-11-09T04:15:45.111Z,96420.84
2022-11-09T04:18:14.304Z,96423.16
2022-11-09T04:20:41.760Z,96421.34
2022-11-09T04:23:11.502Z,96415.84
2022-11-09T04:25:39.597Z,96416.41
2022-11-09T04:28:08.050Z,96424.59
2022-11-09T04:30:36.448Z,96421.22
2022-11-09T04:33:03.840Z,96419.53
2022-11-09T04:35:32.207Z,96422.31
2022-11-09T04:38:01.838Z,96424.38
2022-11-09T04:40:30.962Z,96421.97
2022-11-09T04:43:02.146Z,96422.50
2022-11-09T04:45:28.986Z,96407.13
2022-11-09T04:47:59.848Z,96411.19
2022-11-09T04:50:27.810Z,96404.09
2022-11-09T04:52:54.661Z,96400.75
2022-11-09T04:55:21.492Z,96392.94
2022-11-09T04:57:48.130Z,96394.50
2022-11-09T05:00:15.004Z,96395.34
2022-11-09T05:02:41.579Z,96382.59
2022-11-09T05:05:08.312Z,96392.44
2022-11-09T05:07:34.928Z,96400.75
2022-11-09T05:10:01.573Z,96405.91
2022-11-09T05:12:28.169Z,96401.34
2022-11-09T05:14:54.801Z,96399.53
2022-11-09T05:17:21.391Z,96402.53
2022-11-09T05:19:48.894Z,96416.47
2022-11-09T05:22:37.265Z,96413.00
2022-11-09T05:25:04.263Z,96406.75
2022-11-09T05:27:30.843Z,96409.25
2022-11-09T05:29:57.419Z,96409.38
2022-11-09T05:32:24.005Z,96410.84
2022-11-09T05:34:50.593Z,96410.00
2022-11-09T05:37:18.112Z,96412.53
2022-11-09T05:39:44.766Z,96420.44
2022-11-09T05:42:11.354Z,96422.31
2022-11-09T05:44:38.014Z,96420.38
2022-11-09T05:47:04.644Z,96426.00
2022-11-09T05:49:31.240Z,96417.81
2022-11-09T05:51:57.876Z,96421.88
2022-11-09T05:54:24.828Z,96417.31
2022-11-09T05:56:51.485Z,96422.09
2022-11-09T05:59:18.075Z,96423.75
2022-11-09T06:01:44.704Z,96421.47
2022-11-09T06:04:11.299Z,96421.59
2022-11-09T06:06:37.943Z,96423.13
2022-11-09T06:09:04.572Z,96427.16
2022-11-09T06:11:31.186Z,96440.13
2022-11-09T06:13:57.834Z,96432.34
2022-11-09T06:16:24.574Z,96436.06
2022-11-09T06:18:51.337Z,96446.97
2022-11-09T06:21:18.503Z,96450.56
2022-11-09T06:23:45.146Z,96455.59
2022-11-09T06:26:12.525Z,96456.28
2022-11-09T06:28:40.627Z,96460.63
2022-11-09T06:31:10.849Z,96458.22
2022-11-09T06:33:37.582Z,96465.59
2022-11-09T06:36:05.292Z,96475.19
2022-11-09T06:38:31.951Z,96474.59
2022-11-09T06:41:00.267Z,96467.81
2022-11-09T06:43:27.890Z,96482.97
2022-11-09T06:45:54.625Z,96485.34
2022-11-09T06:48:22.013Z,96479.81
2022-11-09T06:50:49.308Z,96487.41
2022-11-09T06:53:17.136Z,96481.75
2022-11-09T06:55:49.042Z,96484.97
2022-11-09T06:58:17.184Z,96491.81
2022-11-09T07:00:45.081Z,96485.69
2022-11-09T07:03:16.188Z,96483.03
2022-11-09T07:05:43.552Z,96484.84
2022-11-09T07:08:11.141Z,96495.28
2022-11-09T07:10:37.958Z,96502.97
2022-11-09T07:13:05.605Z,96493.47
2022-11-09T07:15:33.217Z,96498.53
2022-11-09T07:18:00.787Z,96490.81
2022-11-09T07:20:27.874Z,96491.81
2022-11-09T07:22:54.819Z,96491.94
2022-11-09T07:25:21.848Z,96497.09
2022-11-09T07:27:48.538Z,96498.38
2022-11-09T07:30:15.466Z,96512.56
2022-11-09T07:35:29.882Z,96517.72
2022-11-09T07:38:01.228Z,96519.75
2022-11-09T07:40:27.959Z,96521.03
2022-11-09T07:42:58.328Z,96519.81
2022-11-09T07:45:26.012Z,96525.09
2022-11-09T07:48:01.320Z,96513.63
2022-11-09T07:50:29.829Z,96522.44
2022-11-09T07:52:58.020Z,96520.22
2022-11-09T07:55:25.751Z,96522.16
2022-11-09T07:58:00.208Z,96522.56
2022-11-09T08:00:28.626Z,96528.59
2022-11-09T08:02:55.629Z,96526.66
2022-11-09T08:05:22.762Z,96523.75
2022-11-09T08:07:54.683Z,96524.75
2022-11-09T08:10:21.380Z,96524.31
2022-11-09T08:12:56.853Z,96525.19
2022-11-09T08:15:24.520Z,96527.94
2022-11-09T08:17:51.605Z,96531.00
2022-11-09T08:20:18.670Z,96520.53
2022-11-09T08:22:46.532Z,96522.50
2022-11-09T08:25:14.909Z,96530.97
2022-11-09T08:27:41.916Z,96536.16
2022-11-09T08:30:14.691Z,96543.97
2022-11-09T08:32:42.766Z,96539.00
2022-11-09T08:35:10.339Z,96535.63
2022-11-09T08:37:38.183Z,96537.81
2022-11-09T08:40:06.570Z,96544.25
2022-11-09T08:42:33.214Z,96540.88
2022-11-09T08:45:00.099Z,96542.56
2022-11-09T08:47:27.267Z,96545.25
2022-11-09T08:49:53.836Z,96548.16
2022-11-09T08:52:20.445Z,96552.75
2022-11-09T08:54:47.125Z,96556.66
2022-11-09T08:57:13.767Z,96559.00
2022-11-09T08:59:40.387Z,96563.59
2022-11-09T09:02:07.112Z,96569.53
2022-11-09T09:04:33.724Z,96567.25
2022-11-09T09:07:00.462Z,96566.19
2022-11-09T09:09:27.222Z,96569.84
2022-11-09T09:11:54.015Z,96581.31
2022-11-09T09:14:20.712Z,96571.53
2022-11-09T09:16:47.333Z,96568.75
2022-11-09T09:19:13.928Z,96577.41
2022-11-09T09:21:40.653Z,96579.38
2022-11-09T09:24:07.468Z,96573.53
2022-11-09T09:26:34.372Z,96576.91
2022-11-09T09:29:01.093Z,96577.97
2022-11-09T09:31:28.180Z,96573.94
2022-11-09T09:33:54.791Z,96570.03
2022-11-09T09:36:23.097Z,96573.38
2022-11-09T09:38:54.253Z,96577.88
2022-11-09T09:41:41.787Z,96573.13
2022-11-09T09:44:20.385Z,96581.44
2022-11-09T09:47:05.355Z,96576.50
2022-11-09T09:49:37.468Z,96584.84
2022-11-09T09:52:21.634Z,96585.97
2022-11-09T09:55:12.043Z,96588.13
2022-11-09T09:57:42.231Z,96591.53
2022-11-09T10:00:19.601Z,96599.41
2022-11-09T10:02:46.210Z,96599.69
2022-11-09T10:05:16.349Z,96586.97
2022-11-09T10:07:52.527Z,96605.81
2022-11-09T10:10:38.985Z,96606.22
2022-11-09T10:13:26.990Z,96602.41
2022-11-09T10:16:27.916Z,96603.56
2022-11-09T10:19:19.499Z,96607.34
2022-11-09T10:22:02.343Z,96602.44
2022-11-09T10:24:31.849Z,96607.50
2022-11-09T10:27:00.125Z,96601.88
2022-11-09T10:29:46.617Z,96609.31
2022-11-09T10:32:15.625Z,96602.47
2022-11-09T10:35:01.544Z,96604.16
2022-11-09T10:37:46.625Z,96600.38
2022-11-09T10:40:23.894Z,96604.84
2022-11-09T10:43:14.630Z,96598.41
2022-11-09T10:46:07.806Z,96599.53
2022-11-09T10:48:55.639Z,96594.38
2022-11-09T10:51:43.342Z,96598.25
2022-11-09T10:54:35.361Z,96613.19
2022-11-09T10:57:25.332Z,96606.91
2022-11-09T11:00:16.521Z,96618.50
2022-11-09T11:03:19.064Z,96623.44
2022-11-09T11:06:16.128Z,96629.06
2022-11-09T11:09:01.516Z,96619.84
2022-11-09T11:11:47.416Z,96626.97
2022-11-09T11:14:35.325Z,96621.50
2022-11-09T11:17:23.200Z,96629.44
2022-11-09T11:20:35.252Z,96629.72
2022-11-09T11:23:21.980Z,96629.13
2022-11-09T11:26:21.542Z,96622.16
2022-11-09T11:29:24.852Z,96617.81
2022-11-09T11:32:14.240Z,96615.97
2022-11-09T11:35:01.026Z,96623.59
2022-11-09T11:38:11.176Z,96622.19
2022-11-09T11:41:05.386Z,96619.81
2022-11-09T11:44:08.426Z,96617.19
2022-11-09T11:47:15.352Z,96617.41
2022-11-09T11:50:12.509Z,96622.47
2022-11-09T11:53:25.971Z,96619.53
2022-11-09T11:56:35.758Z,96623.59
2022-11-09T11:59:36.031Z,96630.31
2022-11-09T12:02:53.826Z,96630.78
2022-11-09T12:06:04.327Z,96633.72
2022-11-09T12:09:04.754Z,96631.69
2022-11-09T12:11:49.736Z,96628.31
2022-11-09T12:15:07.143Z,96630.59
2022-11-09T12:17:53.158Z,96626.13
2022-11-09T12:21:11.984Z,96620.59
2022-11-09T12:24:25.331Z,96623.09
2022-11-09T12:27:32.101Z,96629.25
2022-11-09T12:30:24.216Z,96629.25
2022-11-09T12:33:22.481Z,96619.63
2022-11-09T12:36:22.542Z,96619.34
2022-11-09T12:39:22.567Z,96617.25
2022-11-09T12:42:16.397Z,96628.09
2022-11-09T12:45:17.391Z,96627.25
2022-11-09T12:48:13.425Z,96624.63
2022-11-09T12:51:00.797Z,96620.84
2022-11-09T12:53:45.827Z,96627.25
2022-11-09T12:56:36.563Z,96615.28
2022-11-09T12:59:27.802Z,96610.84
2022-11-09T13:02:24.620Z,96620.44
2022-11-09T13:05:32.310Z,96622.66
2022-11-09T13:08:29.173Z,96623.38
2022-11-09T13:11:51.159Z,96627.00
2022-11-09T13:14:38.479Z,96631.13
2022-11-09T13:17:26.413Z,96624.75
2022-11-09T13:26:47.246Z,96631.53
2022-11-09T13:29:38.890Z,96626.63
2022-11-09T13:32:27.581Z,96630.97
2022-11-09T13:35:41.104Z,96637.50
2022-11-09T13:38:30.804Z,96638.03
2022-11-09T13:41:31.927Z,96635.97
2022-11-09T13:44:22.816Z,96638.22
2022-11-09T13:47:22.410Z,96634.31
2022-11-09T13:50:19.232Z,96635.94
2022-11-09T13:53:47.368Z,96643.56
2022-11-09T13:56:40.820Z,96646.06
2022-11-09T13:59:41.136Z,96644.78
2022-11-09T14:02:27.169Z,96638.34
2022-11-09T14:05:27.147Z,96646.31
2022-11-09T14:08:23.852Z,96640.72
2022-11-09T14:11:21.004Z,96654.47
2022-11-09T14:14:18.230Z,96649.47
2022-11-09T14:17:21.194Z,96650.41
2022-11-09T14:20:22.490Z,96655.69
2022-11-09T14:23:20.039Z,96661.38
2022-11-09T14:26:18.936Z,96660.47
2022-11-09T14:29:24.301Z,96657.56
2022-11-09T14:32:22.787Z,96655.88
2022-11-09T14:35:20.041Z,96663.81
2022-11-09T14:38:21.489Z,96667.44
2022-11-09T14:41:22.885Z,96665.63
2022-11-09T14:44:15.874Z,96663.50
2022-11-09T14:47:01.816Z,96664.88
2022-11-09T14:49:48.075Z,96663.38
2022-11-09T14:52:34.032Z,96659.44
2022-11-09T14:55:21.173Z,96663.31
2022-11-09T14:58:09.693Z,96672.59
2022-11-09T15:01:08.706Z,96680.50
2022-11-09T15:04:13.804Z,96688.16
2022-11-09T15:07:04.955Z,96680.22
2022-11-09T15:09:54.670Z,96699.38
2022-11-09T15:12:46.803Z,96691.13
2022-11-09T15:15:34.538Z,96687.75
2022-11-09T15:18:26.925Z,96692.81
2022-11-09T15:21:32.743Z,96700.16
2022-11-09T15:24:19.589Z,96704.59
2022-11-09T15:27:29.481Z,96702.53
2022-11-09T15:30:33.906Z,96697.88
2022-11-09T15:33:21.316Z,96701.97
2022-11-09T15:36:18.876Z,96709.31
2022-11-09T15:39:15.753Z,96715.56
2022-11-09T15:42:00.749Z,96716.53
2022-11-09T15:44:46.839Z,96716.19
2022-11-09T15:47:37.426Z,96724.31
2022-11-09T15:50:25.682Z,96724.56
2022-11-09T15:53:14.180Z,96720.63
2022-11-09T15:56:01.143Z,96726.50
2022-11-09T15:58:49.371Z,96740.78
2022-11-09T16:01:34.884Z,96738.25
2022-11-09T16:04:20.219Z,96734.28
2022-11-09T16:07:06.218Z,96744.25
2022-11-09T16:09:51.852Z,96746.88
2022-11-09T16:12:40.323Z,96750.94
2022-11-09T16:15:27.369Z,96758.00
2022-11-09T16:18:12.567Z,96754.66
2022-11-09T16:20:58.528Z,96752.47
2022-11-09T16:23:44.017Z,96764.13
2022-11-09T16:26:29.084Z,96770.50
2022-11-09T16:29:14.402Z,96778.03
2022-11-09T16:32:00.893Z,96773.00
2022-11-09T16:34:57.753Z,96778.47
2022-11-09T16:37:54.958Z,96789.78
2022-11-09T16:40:39.988Z,96791.69
2022-11-09T16:43:25.250Z,96795.28
2022-11-09T16:46:13.556Z,96802.34
2022-11-09T16:49:01.004Z,96806.34
2022-11-09T16:51:46.479Z,96814.69
2022-11-09T16:54:31.678Z,96811.22
2022-11-09T16:57:16.863Z,96814.69
2022-11-09T17:00:02.154Z,96813.03
2022-11-09T17:02:47.245Z,96824.78
2022-11-09T17:05:32.554Z,96827.75
2022-11-09T17:08:18.370Z,96831.72
2022-11-09T17:11:08.525Z,96835.31
2022-11-09T17:13:58.684Z,96843.69
2022-11-09T17:16:44.163Z,96846.31
2022-11-09T17:19:34.062Z,96861.63
2022-11-09T17:22:19.356Z,96860.19
2022-11-09T17:25:04.839Z,96863.03
2022-11-09T17:27:49.685Z,96876.56
2022-11-09T17:30:35.173Z,96882.94
2022-11-09T17:33:21.168Z,96886.72
2022-11-09T17:36:08.763Z,96894.63
2022-11-09T17:38:53.859Z,96897.28
2022-11-09T17:41:42.491Z,96900.53
2022-11-09T17:44:27.991Z,96900.03
2022-11-09T17:47:13.020Z,96900.88
2022-11-09T17:49:58.221Z,96892.09
2022-11-09T17:52:43.499Z,96903.84
2022-11-09T17:55:28.956Z,96903.72
2022-11-09T17:58:14.166Z,96907.09
2022-11-09T18:01:10.882Z,96902.25
2022-11-09T18:03:56.406Z,96914.47
2022-11-09T18:06:41.609Z,96912.03
2022-11-09T18:09:40.840Z,96914.16
2022-11-09T18:12:27.453Z,96917.34
2022-11-09T18:15:12.827Z,96928.13
2022-11-09T18:17:57.876Z,96936.22
2022-11-09T18:20:43.070Z,96921.16
2022-11-09T18:23:28.377Z,96931.72
2022-11-09T18:26:14.371Z,96930.41
2022-11-09T18:29:00.271Z,96932.94
2022-11-09T18:31:45.364Z,96944.06
2022-11-09T18:34:30.521Z,96936.53
2022-11-09T18:37:15.946Z,96936.75
2022-11-09T18:40:01.405Z,96944.31
2022-11-09T18:42:46.605Z,96950.16
2022-11-09T18:45:34.605Z,96958.81
2022-11-09T18:48:20.121Z,96953.41
2022-11-09T18:51:07.069Z,96961.63
2022-11-09T18:53:52.119Z,96971.56
2022-11-09T18:56:37.419Z,96970.06
2022-11-09T18:59:22.654Z,96972.19
2022-11-09T19:02:08.986Z,96981.28
2022-11-09T19:04:53.911Z,96989.06
2022-11-09T19:07:39.175Z,96988.22
2022-11-09T19:10:24.449Z,96984.00
2022-11-09T19:13:09.744Z,96995.19
2022-11-09T19:15:58.387Z,96996.56
2022-11-09T19:18:43.715Z,96995.81
2022-11-09T19:21:51.403Z,96999.19
2022-11-09T19:24:36.598Z,96999.31
2022-11-09T19:27:22.486Z,96996.00
2022-11-09T19:30:09.783Z,97005.41
2022-11-09T19:32:55.375Z,97007.50
2022-11-09T19:35:40.552Z,97010.88
2022-11-09T19:38:25.574Z,97022.25
2022-11-09T19:41:11.417Z,97029.97
2022-11-09T19:44:00.560Z,97035.56
2022-11-09T19:46:45.806Z,97037.88
2022-11-09T19:49:31.220Z,97043.38
2022-11-09T19:52:16.319Z,97040.72
2022-11-09T19:55:01.707Z,97049.56
2022-11-09T19:57:46.736Z,97046.06
2022-11-09T20:00:32.014Z,97048.53
2022-11-09T20:03:17.129Z,97057.13
2022-11-09T20:06:03.881Z,97064.75
2022-11-09T20:08:49.802Z,97056.06
2022-11-09T20:11:53.901Z,97062.63
2022-11-09T20:14:39.229Z,97066.28
2022-11-09T20:17:24.334Z,97072.81
2022-11-09T20:20:10.151Z,97071.22
2022-11-09T20:22:55.550Z,97073.66
2022-11-09T20:25:40.811Z,97076.91
2022-11-09T20:28:26.216Z,97074.69
2022-11-09T20:31:19.418Z,97080.06
2022-11-09T20:34:04.791Z,97072.06
2022-11-09T20:36:49.704Z,97082.34
2022-11-09T20:39:35.429Z,97085.81
2022-11-09T20:42:20.531Z,97092.25
2022-11-09T20:45:06.275Z,97097.91
2022-11-09T20:48:10.202Z,97098.97
2022-11-09T20:51:02.050Z,97114.31
2022-11-09T20:53:49.543Z,97114.97
2022-11-09T20:56:35.877Z,97122.88
2022-11-09T20:59:20.806Z,97130.22
2022-11-09T21:02:05.969Z,97135.25
2022-11-09T21:04:51.246Z,97140.53
2022-11-09T21:07:36.189Z,97142.03
2022-11-09T21:10:21.446Z,97139.44
2022-11-09T21:13:06.543Z,97141.56
2022-11-09T21:15:51.689Z,97148.75
2022-11-09T21:18:37.111Z,97155.13
2022-11-09T21:21:23.891Z,97158.59
2022-11-09T21:24:28.259Z,97166.59
2022-11-09T21:27:32.064Z,97177.88
2022-11-09T21:30:18.590Z,97182.41
2022-11-09T21:33:03.890Z,97179.88
2022-11-09T21:35:49.092Z,97181.66
2022-11-09T21:38:34.584Z,97191.25
2022-11-09T21:41:38.094Z,97189.66
2022-11-09T21:44:23.455Z,97195.28
2022-11-09T21:47:09.239Z,97190.13
2022-11-09T21:49:54.459Z,97198.50
2022-11-09T21:52:39.381Z,97205.47
2022-11-09T21:55:24.631Z,97205.94
2022-11-09T21:58:09.796Z,97206.69
2022-11-09T22:00:59.548Z,97210.44
2022-11-09T22:03:46.116Z,97208.50
2022-11-09T22:06:31.419Z,97213.19
2022-11-09T22:09:18.418Z,97227.28
2022-11-09T22:12:22.107Z,97218.81
2022-11-09T22:15:28.479Z,97230.94
2022-11-09T22:18:33.752Z,97229.06
2022-11-09T22:21:19.912Z,97224.81
2022-11-09T22:24:05.174Z,97237.91
2022-11-09T22:26:50.208Z,97242.13
2022-11-09T22:29:35.388Z,97239.03
2022-11-09T22:32:21.172Z,97234.88
2022-11-09T22:35:06.471Z,97239.94
2022-11-09T22:37:51.604Z,97240.78
2022-11-09T22:40:36.833Z,97240.88
2022-11-09T22:43:22.249Z,97239.84
2022-11-09T22:46:14.263Z,97243.53
2022-11-09T22:48:59.232Z,97249.25
2022-11-09T22:51:44.416Z,97243.16
2022-11-09T22:54:29.729Z,97242.69
2022-11-09T22:57:14.877Z,97247.47
2022-11-09T23:00:00.207Z,97254.53
2022-11-09T23:02:45.615Z,97252.53
2022-11-09T23:05:30.684Z,97255.09
2022-11-09T23:08:16.068Z,97259.97
2022-11-09T23:11:01.281Z,97264.63
2022-11-09T23:13:52.007Z,97266.13
2022-11-09T23:16:37.332Z,97264.78
2022-11-09T23:19:22.618Z,97264.97
2022-11-09T23:22:08.000Z,97265.94
2022-11-09T23:25:12.079Z,97271.09
2022-11-09T23:27:58.084Z,97266.19
2022-11-09T23:30:43.052Z,97267.97
2022-11-09T23:33:29.344Z,97278.47
2022-11-09T23:36:14.708Z,97279.63
2022-11-09T23:39:00.114Z,97283.34
2022-11-09T23:41:45.188Z,97285.22
2022-11-09T23:44:30.366Z,97293.59
2022-11-09T23:47:15.355Z,97300.34
2022-11-09T23:50:00.694Z,97296.88
2022-11-09T23:52:46.104Z,97311.91
2022-11-09T23:55:31.155Z,97313.84
2022-11-09T23:58:16.295Z,97310.75
